Time;durP1;ratioP1;P1;durP2;ratioP2;P2;SDS_P1;SDS_P2;PMS_P1;PMS_P2;Temp;Humidity;BMP_temperature;BMP_pressure;BME280_temperature;BME280_humidity;BME280_pressure;Samples;Min_cycle;Max_cycle;Signal;HPM_P1;HPM_P2
2023/09/21 00:01:06;;;;;;;10.87;10.37;;;;;;;;;;2613646;54;21491;-83
2023/09/21 00:06:36;;;;;;;10.60;10.10;;;;;;;;;;2613199;54;20534;-83
2023/09/21 00:12:09;;;;;;;10.93;10.13;;;;;;;;;;2612935;54;20417;-82
2023/09/21 00:17:39;;;;;;;10.20;9.70;;;;;;;;;;2613025;54;20395;-83
2023/09/21 00:23:10;;;;;;;11.07;10.47;;;;;;;;;;2613907;31;20859;-83
2023/09/21 00:28:37;;;;;;;12.23;11.20;;;;;;;;;;2613539;54;20520;-80
2023/09/21 00:34:08;;;;;;;11.23;10.57;;;;;;;;;;2612127;54;20402;-82
2023/09/21 00:39:38;;;;;;;10.97;10.30;;;;;;;;;;2612276;54;20415;-80
2023/09/21 00:45:08;;;;;;;11.00;10.40;;;;;;;;;;2612866;39;20880;-81
2023/09/21 00:50:41;;;;;;;12.00;11.30;;;;;;;;;;2613123;54;20377;-79
2023/09/21 00:56:12;;;;;;;11.50;11.00;;;;;;;;;;2612676;54;20418;-80
2023/09/21 01:01:43;;;;;;;11.00;10.40;;;;;;;;;;2612877;54;20394;-79
2023/09/21 01:07:21;;;;;;;11.20;10.70;;;;;;;;;;2612910;54;20382;-83
2023/09/21 01:12:51;;;;;;;11.33;10.47;;;;;;;;;;2612706;39;20704;-81
2023/09/21 01:18:21;;;;;;;12.50;11.90;;;;;;;;;;2612977;54;20411;-82
2023/09/21 01:23:52;;;;;;;11.07;10.57;;;;;;;;;;2613331;54;20414;-80
2023/09/21 01:29:22;;;;;;;10.40;10.00;;;;;;;;;;2615238;39;20648;-81
2023/09/21 01:34:51;;;;;;;10.77;10.27;;;;;;;;;;2614231;54;20494;-81
2023/09/21 01:40:21;;;;;;;12.10;11.50;;;;;;;;;;2613491;54;20410;-78
2023/09/21 01:45:51;;;;;;;11.53;11.00;;;;;;;;;;2613095;54;20375;-78
2023/09/21 01:51:21;;;;;;;11.77;10.97;;;;;;;;;;2612776;54;20958;-78
2023/09/21 01:56:53;;;;;;;11.17;10.67;;;;;;;;;;2612706;54;20399;-79
2023/09/21 02:02:23;;;;;;;11.40;10.83;;;;;;;;;;2613931;54;20396;-80
2023/09/21 02:07:54;;;;;;;11.07;10.57;;;;;;;;;;2613403;54;20395;-79
2023/09/21 02:13:24;;;;;;;11.13;10.53;;;;;;;;;;2612832;54;20411;-80
2023/09/21 02:18:54;;;;;;;11.80;11.30;;;;;;;;;;2615320;39;20812;-82
2023/09/21 02:24:25;;;;;;;11.23;10.73;;;;;;;;;;2614570;39;20778;-82
2023/09/21 02:36:02;;;;;;;11.97;10.90;;;;;;;;;;2614718;54;20989;-83
2023/09/21 02:41:32;;;;;;;10.83;10.23;;;;;;;;;;2614067;54;20418;-82
2023/09/21 02:47:02;;;;;;;11.60;10.90;;;;;;;;;;2615171;54;20414;-81
2023/09/21 02:52:32;;;;;;;12.50;11.63;;;;;;;;;;2613405;54;20399;-80
2023/09/21 02:58:09;;;;;;;12.57;11.80;;;;;;;;;;2612872;54;20350;-81
2023/09/21 03:03:39;;;;;;;10.80;10.30;;;;;;;;;;2612398;54;22081;-81
2023/09/21 03:09:09;;;;;;;11.50;10.90;;;;;;;;;;2613653;39;22053;-81
2023/09/21 03:14:39;;;;;;;12.00;11.00;;;;;;;;;;2612996;54;20396;-82
2023/09/21 03:20:13;;;;;;;12.37;11.50;;;;;;;;;;2613436;39;20783;-81
2023/09/21 03:25:53;;;;;;;11.40;10.90;;;;;;;;;;2612160;54;20401;-81
2023/09/21 03:31:23;;;;;;;11.10;10.60;;;;;;;;;;2610869;54;20442;-85
2023/09/21 03:36:53;;;;;;;10.80;10.30;;;;;;;;;;2612215;54;20537;-82
2023/09/21 03:42:23;;;;;;;11.63;11.13;;;;;;;;;;2612609;54;20395;-83
2023/09/21 03:47:53;;;;;;;11.40;10.80;;;;;;;;;;2613079;54;21656;-83
2023/09/21 03:53:23;;;;;;;12.57;11.67;;;;;;;;;;2612357;54;20414;-82
2023/09/21 03:58:55;;;;;;;11.10;10.60;;;;;;;;;;2612661;54;20406;-80
2023/09/21 04:04:25;;;;;;;12.03;11.23;;;;;;;;;;2613164;54;20382;-80
2023/09/21 04:09:55;;;;;;;10.73;10.20;;;;;;;;;;2613039;54;20394;-80
2023/09/21 04:15:25;;;;;;;10.37;9.57;;;;;;;;;;2611648;54;20378;-80
2023/09/21 04:20:55;;;;;;;11.87;10.90;;;;;;;;;;2612581;54;20398;-79
2023/09/21 04:26:25;;;;;;;10.33;9.73;;;;;;;;;;2612927;54;20904;-81
2023/09/21 04:29:15;;;;;;;11.10;10.27;;;;;;;;;;2611613;47;20419;-81
2023/09/21 04:31:41;;;;;;;11.43;10.30;;;;;;;;;;2611976;54;20459;-79
2023/09/21 04:37:13;;;;;;;12.53;11.57;;;;;;;;;;2611298;54;20511;-82
2023/09/21 04:42:46;;;;;;;10.90;10.40;;;;;;;;;;2612749;54;20407;-81
2023/09/21 04:48:16;;;;;;;10.97;10.37;;;;;;;;;;2613123;54;20394;-81
2023/09/21 04:53:46;;;;;;;11.30;10.50;;;;;;;;;;2612774;54;20394;-82
2023/09/21 04:59:18;;;;;;;11.27;10.67;;;;;;;;;;2612862;54;20403;-81
2023/09/21 05:04:50;;;;;;;11.10;10.50;;;;;;;;;;2613462;54;20393;-81
2023/09/21 05:10:20;;;;;;;11.40;10.70;;;;;;;;;;2612245;54;20394;-80
2023/09/21 05:15:51;;;;;;;12.70;12.00;;;;;;;;;;2612890;54;20387;-81
2023/09/21 05:21:21;;;;;;;13.10;11.57;;;;;;;;;;2612330;54;21052;-81
2023/09/21 05:26:50;;;;;;;12.17;11.23;;;;;;;;;;2612257;54;20928;-80
2023/09/21 05:36:04;;;;;;;11.07;10.47;;;;;;;;;;2614887;54;20399;-80
2023/09/21 05:41:34;;;;;;;10.90;10.40;;;;;;;;;;2615775;39;20816;-80
2023/09/21 05:47:04;;;;;;;10.60;10.10;;;;;;;;;;2614952;54;20940;-80
2023/09/21 05:52:35;;;;;;;12.20;11.27;;;;;;;;;;2614617;54;20395;-80
2023/09/21 05:58:05;;;;;;;10.97;10.27;;;;;;;;;;2610757;54;20480;-80
2023/09/21 06:03:35;;;;;;;11.00;10.20;;;;;;;;;;2615128;54;20351;-81
2023/09/21 06:09:07;;;;;;;11.13;10.50;;;;;;;;;;2615089;54;20917;-80
2023/09/21 06:14:37;;;;;;;10.20;9.60;;;;;;;;;;2615708;54;20378;-80
2023/09/21 06:20:07;;;;;;;10.10;9.50;;;;;;;;;;2614140;54;20391;-80
2023/09/21 06:25:37;;;;;;;10.97;10.40;;;;;;;;;;2614455;54;20399;-80
2023/09/21 06:31:07;;;;;;;11.40;10.80;;;;;;;;;;2614963;54;20930;-80
2023/09/21 06:36:37;;;;;;;11.20;10.37;;;;;;;;;;2613801;54;21031;-80
2023/09/21 06:42:07;;;;;;;12.03;11.43;;;;;;;;;;2614263;39;21081;-80
2023/09/21 06:47:37;;;;;;;12.40;11.60;;;;;;;;;;2615036;54;20957;-80
2023/09/21 06:53:07;;;;;;;11.93;11.43;;;;;;;;;;2613347;54;20466;-80
2023/09/21 06:58:37;;;;;;;10.70;10.20;;;;;;;;;;2614615;54;20395;-80
2023/09/21 07:04:07;;;;;;;11.33;10.67;;;;;;;;;;2613434;54;20387;-80
2023/09/21 07:09:37;;;;;;;11.77;11.17;;;;;;;;;;2611409;54;20419;-80
2023/09/21 07:15:07;;;;;;;12.50;11.70;;;;;;;;;;2615352;54;20467;-80
2023/09/21 07:20:37;;;;;;;10.93;10.43;;;;;;;;;;2615196;54;20552;-81
2023/09/21 07:26:08;;;;;;;12.30;11.70;;;;;;;;;;2614854;54;20411;-81
2023/09/21 07:31:37;;;;;;;11.93;11.43;;;;;;;;;;2611606;54;20419;-80
2023/09/21 07:40:48;;;;;;;12.80;12.03;;;;;;;;;;2615338;54;20595;-81
2023/09/21 07:46:17;;;;;;;12.60;11.73;;;;;;;;;;2614077;54;20411;-81
2023/09/21 07:51:47;;;;;;;12.00;11.30;;;;;;;;;;2613085;54;20395;-80
2023/09/21 07:57:17;;;;;;;12.03;11.43;;;;;;;;;;2613465;54;20414;-80
2023/09/21 08:02:47;;;;;;;12.97;11.93;;;;;;;;;;2613184;39;21217;-80
2023/09/21 08:08:17;;;;;;;12.13;11.53;;;;;;;;;;2612597;54;20542;-79
2023/09/21 08:13:47;;;;;;;12.90;12.20;;;;;;;;;;2611473;54;21270;-78
2023/09/21 08:19:17;;;;;;;13.00;12.10;;;;;;;;;;2614540;54;20379;-78
2023/09/21 08:24:46;;;;;;;12.97;12.37;;;;;;;;;;2615762;54;20441;-78
2023/09/21 08:30:16;;;;;;;13.93;13.10;;;;;;;;;;2614955;54;20406;-78
2023/09/21 08:35:46;;;;;;;13.20;12.40;;;;;;;;;;2612614;54;20439;-78
2023/09/21 08:41:16;;;;;;;13.33;11.93;;;;;;;;;;2611748;54;20395;-79
2023/09/21 08:46:47;;;;;;;12.57;11.60;;;;;;;;;;2610846;54;20487;-79
2023/09/21 08:52:17;;;;;;;13.70;12.90;;;;;;;;;;2613568;39;20952;-78
2023/09/21 08:57:47;;;;;;;13.63;12.80;;;;;;;;;;2612260;54;20370;-79
2023/09/21 09:03:19;;;;;;;12.60;12.00;;;;;;;;;;2612915;39;20879;-78
2023/09/21 09:08:49;;;;;;;13.10;12.50;;;;;;;;;;2615776;31;20846;-78
2023/09/21 09:14:22;;;;;;;11.80;11.30;;;;;;;;;;2614369;54;20390;-79
2023/09/21 09:19:52;;;;;;;12.90;12.10;;;;;;;;;;2614889;54;20411;-79
2023/09/21 09:25:21;;;;;;;11.70;11.20;;;;;;;;;;2615362;39;20850;-78
2023/09/21 09:30:52;;;;;;;12.23;11.53;;;;;;;;;;2614767;39;20783;-78
2023/09/21 09:36:22;;;;;;;12.50;11.90;;;;;;;;;;2613140;54;20379;-79
2023/09/21 09:41:53;;;;;;;11.93;11.33;;;;;;;;;;2615305;39;20772;-79
2023/09/21 09:47:28;;;;;;;13.43;12.10;;;;;;;;;;2614218;54;21263;-79
2023/09/21 09:53:00;;;;;;;12.10;11.50;;;;;;;;;;2614391;54;20936;-79
2023/09/21 09:58:30;;;;;;;12.17;11.57;;;;;;;;;;2615382;54;20460;-78
2023/09/21 10:04:00;;;;;;;11.63;11.03;;;;;;;;;;2617068;39;20758;-78
2023/09/21 10:09:29;;;;;;;12.23;11.40;;;;;;;;;;2616392;54;20401;-77
2023/09/21 10:14:59;;;;;;;11.93;11.17;;;;;;;;;;2615906;54;20375;-77
2023/09/21 10:17:50;;;;;;;12.50;11.50;;;;;;;;;;2616111;54;20403;-76
2023/09/21 10:20:24;;;;;;;12.00;11.27;;;;;;;;;;2615312;54;20442;-78
2023/09/21 10:25:55;;;;;;;11.70;11.10;;;;;;;;;;2614062;54;20412;-79
2023/09/21 10:31:27;;;;;;;13.00;12.20;;;;;;;;;;2614090;54;20941;-79
2023/09/21 10:43:21;;;;;;;13.13;12.43;;;;;;;;;;2614155;54;20426;-79
2023/09/21 10:45:56;;;;;;;13.07;12.07;;;;;;;;;;2613375;54;20426;-79
2023/09/21 10:51:26;;;;;;;12.50;11.80;;;;;;;;;;2614239;31;20951;-79
2023/09/21 10:56:55;;;;;;;12.33;11.73;;;;;;;;;;2614702;54;20380;-81
2023/09/21 11:02:25;;;;;;;13.20;12.33;;;;;;;;;;2615764;54;20391;-77
2023/09/21 11:07:55;;;;;;;13.43;12.73;;;;;;;;;;2615397;54;20400;-77
2023/09/21 11:13:27;;;;;;;12.30;11.70;;;;;;;;;;2613189;54;20390;-78
2023/09/21 11:18:57;;;;;;;11.47;10.77;;;;;;;;;;2614394;54;20411;-78
2023/09/21 11:24:27;;;;;;;12.40;11.70;;;;;;;;;;2615323;54;20382;-77
2023/09/21 11:29:57;;;;;;;11.90;11.20;;;;;;;;;;2615187;39;20705;-78
2023/09/21 11:35:28;;;;;;;12.47;11.67;;;;;;;;;;2613911;54;20443;-78
2023/09/21 11:40:57;;;;;;;12.23;11.43;;;;;;;;;;2614523;54;20390;-78
2023/09/21 11:46:29;;;;;;;11.70;11.00;;;;;;;;;;2615392;54;20375;-77
2023/09/21 11:51:59;;;;;;;12.57;11.37;;;;;;;;;;2614842;54;20399;-76
2023/09/21 11:57:29;;;;;;;12.33;11.53;;;;;;;;;;2615178;39;20577;-79
2023/09/21 12:02:58;;;;;;;11.90;11.10;;;;;;;;;;2615574;54;20382;-78
2023/09/21 12:08:28;;;;;;;11.67;10.97;;;;;;;;;;2616342;39;20771;-80
2023/09/21 12:13:58;;;;;;;11.90;11.30;;;;;;;;;;2614909;54;20415;-80
2023/09/21 12:19:29;;;;;;;11.77;11.07;;;;;;;;;;2614715;54;20380;-80
2023/09/21 12:25:02;;;;;;;12.50;11.80;;;;;;;;;;2614437;54;20391;-80
2023/09/21 12:30:32;;;;;;;11.57;10.97;;;;;;;;;;2614420;39;20613;-80
2023/09/21 12:36:04;;;;;;;11.50;10.90;;;;;;;;;;2615518;39;20879;-80
2023/09/21 12:50:45;;;;;;;12.20;11.37;;;;;;;;;;2615789;54;20390;-80
2023/09/21 12:56:14;;;;;;;11.80;11.20;;;;;;;;;;2614837;54;20383;-80
2023/09/21 13:01:44;;;;;;;12.43;11.63;;;;;;;;;;2613750;54;20521;-80
2023/09/21 13:04:30;;;;;;;11.87;11.10;;;;;;;;;;2613266;47;20427;-80
2023/09/21 13:06:58;;;;;;;11.37;10.77;;;;;;;;;;2614520;47;20574;-80
2023/09/21 13:12:28;;;;;;;11.10;10.17;;;;;;;;;;2615969;54;21043;-80
2023/09/21 13:17:58;;;;;;;11.40;10.57;;;;;;;;;;2616297;54;20382;-78
2023/09/21 13:23:29;;;;;;;12.47;11.50;;;;;;;;;;2616760;39;20782;-79
2023/09/21 13:28:58;;;;;;;12.60;11.60;;;;;;;;;;2614739;54;20398;-78
2023/09/21 13:34:28;;;;;;;11.90;11.30;;;;;;;;;;2615642;54;20466;-78
2023/09/21 13:39:58;;;;;;;13.10;11.90;;;;;;;;;;2615098;54;20390;-79
2023/09/21 13:45:28;;;;;;;11.80;11.13;;;;;;;;;;2615189;54;20391;-78
2023/09/21 13:50:59;;;;;;;11.20;10.60;;;;;;;;;;2616043;54;20446;-79
2023/09/21 13:56:29;;;;;;;11.10;10.50;;;;;;;;;;2615463;54;20421;-79
2023/09/21 14:02:00;;;;;;;11.30;10.57;;;;;;;;;;2613571;54;20535;-79
2023/09/21 14:07:30;;;;;;;11.10;10.30;;;;;;;;;;2616132;39;20792;-78
2023/09/21 14:13:00;;;;;;;11.90;10.83;;;;;;;;;;2616085;54;20391;-80
2023/09/21 14:18:30;;;;;;;11.60;10.70;;;;;;;;;;2615325;54;20511;-79
2023/09/21 14:24:00;;;;;;;11.77;10.87;;;;;;;;;;2614712;54;20419;-80
2023/09/21 14:29:30;;;;;;;11.40;10.70;;;;;;;;;;2614711;54;20403;-79
2023/09/21 14:35:02;;;;;;;11.50;10.70;;;;;;;;;;2614889;54;20403;-79
2023/09/21 14:40:31;;;;;;;11.90;10.73;;;;;;;;;;2615027;54;20416;-80
2023/09/21 14:46:01;;;;;;;12.13;11.23;;;;;;;;;;2615713;39;20738;-80
2023/09/21 14:55:09;;;;;;;10.93;10.33;;;;;;;;;;2614260;54;21099;-80
2023/09/21 15:00:39;;;;;;;11.27;10.67;;;;;;;;;;2616493;39;20726;-80
2023/09/21 15:06:09;;;;;;;11.60;5.43;;;;;;;;;;2615115;54;20383;-77
2023/09/21 15:11:38;;;;;;;5.47;3.97;;;;;;;;;;2614767;54;20411;-77
2023/09/21 15:17:08;;;;;;;4.07;3.67;;;;;;;;;;2614668;54;20431;-74
2023/09/21 15:22:38;;;;;;;7.30;2.50;;;;;;;;;;2614692;39;20768;-78
2023/09/21 15:28:10;;;;;;;3.50;2.17;;;;;;;;;;2610154;54;20386;-79
2023/09/21 15:33:40;;;;;;;4.80;2.73;;;;;;;;;;2615268;54;20410;-79
2023/09/21 15:39:10;;;;;;;3.30;2.37;;;;;;;;;;2615567;54;20391;-80
2023/09/21 15:44:40;;;;;;;5.13;2.00;;;;;;;;;;2614094;54;20411;-80
2023/09/21 15:50:10;;;;;;;4.03;2.87;;;;;;;;;;2612626;54;20537;-81
2023/09/21 15:55:40;;;;;;;4.40;2.37;;;;;;;;;;2612183;54;20402;-81
2023/09/21 16:01:11;;;;;;;2.60;2.10;;;;;;;;;;2613459;54;20414;-81
2023/09/21 16:06:41;;;;;;;5.87;2.80;;;;;;;;;;2615026;54;20354;-81
2023/09/21 16:12:11;;;;;;;3.80;2.40;;;;;;;;;;2615042;54;20402;-81
2023/09/21 16:17:41;;;;;;;6.20;2.43;;;;;;;;;;2615727;54;20391;-81
2023/09/21 16:23:11;;;;;;;3.10;2.30;;;;;;;;;;2615160;54;20395;-81
2023/09/21 16:28:40;;;;;;;4.43;2.47;;;;;;;;;;2613325;54;20391;-79
2023/09/21 16:34:10;;;;;;;3.50;2.77;;;;;;;;;;2614653;54;20410;-80
2023/09/21 16:39:40;;;;;;;6.13;3.40;;;;;;;;;;2614092;54;20945;-78
2023/09/21 16:45:10;;;;;;;3.20;2.50;;;;;;;;;;2615155;54;20426;-79
2023/09/21 16:50:40;;;;;;;6.17;3.10;;;;;;;;;;2615744;54;20451;-81
2023/09/21 16:56:10;;;;;;;3.83;2.50;;;;;;;;;;2615166;54;20435;-78
2023/09/21 17:01:40;;;;;;;4.93;2.60;;;;;;;;;;2613452;46;20403;-78
2023/09/21 17:07:09;;;;;;;4.40;2.93;;;;;;;;;;2614019;54;20379;-78
2023/09/21 17:12:39;;;;;;;4.30;2.90;;;;;;;;;;2614759;54;20430;-78
2023/09/21 17:18:09;;;;;;;4.37;3.37;;;;;;;;;;2614973;54;20416;-78
2023/09/21 17:23:38;;;;;;;3.80;3.13;;;;;;;;;;2614553;54;20390;-76
2023/09/21 17:29:08;;;;;;;5.57;4.63;;;;;;;;;;2614430;54;20398;-79
2023/09/21 17:34:39;;;;;;;3.87;3.13;;;;;;;;;;2614439;54;20387;-78
2023/09/21 17:40:11;;;;;;;7.83;4.10;;;;;;;;;;2616042;54;20487;-78
2023/09/21 17:45:41;;;;;;;7.43;4.10;;;;;;;;;;2616628;39;20748;-79
2023/09/21 17:57:18;;;;;;;4.63;3.07;;;;;;;;;;2616098;54;20398;-79
2023/09/21 18:02:48;;;;;;;6.93;4.10;;;;;;;;;;2618437;54;20951;-80
2023/09/21 18:08:18;;;;;;;4.67;4.00;;;;;;;;;;2614737;54;20519;-80
2023/09/21 18:13:48;;;;;;;5.33;4.80;;;;;;;;;;2612870;54;20459;-80
2023/09/21 18:19:17;;;;;;;5.10;4.27;;;;;;;;;;2613270;54;20925;-78
2023/09/21 18:24:47;;;;;;;6.97;4.23;;;;;;;;;;2615168;54;20941;-78
2023/09/21 18:30:16;;;;;;;6.73;4.43;;;;;;;;;;2615376;54;20435;-78
2023/09/21 18:35:46;;;;;;;6.07;4.40;;;;;;;;;;2614938;54;20520;-79
2023/09/21 18:41:19;;;;;;;5.83;3.40;;;;;;;;;;2615833;54;20430;-79
2023/09/21 18:46:48;;;;;;;5.77;3.33;;;;;;;;;;2615783;54;20479;-78
2023/09/21 18:55:59;;;;;;;4.07;3.10;;;;;;;;;;2614557;54;20443;-80
2023/09/21 19:01:29;;;;;;;3.60;2.30;;;;;;;;;;2615239;54;20406;-80
2023/09/21 19:06:58;;;;;;;3.70;2.57;;;;;;;;;;2613672;54;20414;-80
2023/09/21 19:12:28;;;;;;;3.77;1.80;;;;;;;;;;2614726;54;20521;-79
2023/09/21 19:17:58;;;;;;;3.77;2.47;;;;;;;;;;2612088;54;20420;-78
2023/09/21 19:23:29;;;;;;;3.60;2.37;;;;;;;;;;2613465;54;20495;-79
2023/09/21 19:28:59;;;;;;;5.43;3.57;;;;;;;;;;2613443;54;20411;-80
2023/09/21 19:34:28;;;;;;;5.30;3.00;;;;;;;;;;2613991;39;20788;-79
2023/09/21 19:39:58;;;;;;;6.63;2.53;;;;;;;;;;2614643;54;20953;-79
2023/09/21 19:45:28;;;;;;;3.83;2.10;;;;;;;;;;2612397;54;20556;-79
2023/09/21 19:50:58;;;;;;;3.57;1.97;;;;;;;;;;2614198;54;20953;-80
2023/09/21 19:56:28;;;;;;;4.10;1.57;;;;;;;;;;2615330;54;20991;-80
2023/09/21 20:01:57;;;;;;;2.77;1.73;;;;;;;;;;2613508;54;20415;-80
2023/09/21 20:07:27;;;;;;;3.20;1.40;;;;;;;;;;2613886;54;20370;-80
2023/09/21 20:12:56;;;;;;;2.93;1.37;;;;;;;;;;2613839;54;20431;-80
2023/09/21 20:18:26;;;;;;;3.50;1.33;;;;;;;;;;2615687;54;20447;-79
2023/09/21 20:23:56;;;;;;;2.60;1.27;;;;;;;;;;2615325;54;20499;-80
2023/09/21 20:29:26;;;;;;;2.90;1.60;;;;;;;;;;2614588;54;20980;-80
2023/09/21 20:34:55;;;;;;;4.00;1.70;;;;;;;;;;2613888;54;20378;-81
2023/09/21 20:40:25;;;;;;;5.40;2.27;;;;;;;;;;2614746;54;21320;-79
2023/09/21 20:45:55;;;;;;;3.10;1.87;;;;;;;;;;2614982;54;20407;-79
2023/09/21 20:51:25;;;;;;;3.67;2.10;;;;;;;;;;2614332;54;20395;-79
2023/09/21 21:00:38;;;;;;;4.57;2.30;;;;;;;;;;2614557;54;20410;-79
2023/09/21 21:06:08;;;;;;;3.33;1.93;;;;;;;;;;2614669;54;20391;-78
2023/09/21 21:11:38;;;;;;;5.93;2.80;;;;;;;;;;2613274;54;20505;-77
2023/09/21 21:17:08;;;;;;;14.17;3.30;;;;;;;;;;2613809;54;20412;-78
2023/09/21 21:22:38;;;;;;;3.90;2.60;;;;;;;;;;2614809;39;20801;-77
2023/09/21 21:28:07;;;;;;;4.80;3.73;;;;;;;;;;2615078;54;20498;-77
2023/09/21 21:33:37;;;;;;;4.70;3.27;;;;;;;;;;2614689;54;20538;-77
2023/09/21 21:39:06;;;;;;;5.80;2.27;;;;;;;;;;2614546;54;20386;-77
2023/09/21 21:44:36;;;;;;;3.67;2.70;;;;;;;;;;2613950;54;20435;-77
2023/09/21 21:50:06;;;;;;;4.80;3.67;;;;;;;;;;2614910;54;20391;-75
2023/09/21 21:55:36;;;;;;;4.53;3.13;;;;;;;;;;2614980;54;20491;-76
2023/09/21 22:01:07;;;;;;;5.27;2.77;;;;;;;;;;2614113;54;20446;-75
2023/09/21 22:06:36;;;;;;;5.80;2.87;;;;;;;;;;2614572;54;20893;-76
2023/09/21 22:12:07;;;;;;;4.70;2.53;;;;;;;;;;2614860;54;20362;-76
2023/09/21 22:17:37;;;;;;;3.20;2.50;;;;;;;;;;2614626;54;20382;-76
2023/09/21 22:23:07;;;;;;;4.60;2.80;;;;;;;;;;2613652;54;20430;-77
2023/09/21 22:28:37;;;;;;;5.20;2.63;;;;;;;;;;2615016;54;20366;-76
2023/09/21 22:34:07;;;;;;;3.27;2.33;;;;;;;;;;2614463;54;20455;-76
2023/09/21 22:39:37;;;;;;;4.83;2.53;;;;;;;;;;2614929;54;20363;-77
2023/09/21 22:45:07;;;;;;;5.73;2.50;;;;;;;;;;2614878;54;20423;-77
2023/09/21 22:50:37;;;;;;;4.93;3.20;;;;;;;;;;2615185;54;20415;-77
2023/09/21 22:56:07;;;;;;;5.00;2.77;;;;;;;;;;2615933;39;21310;-77
2023/09/21 23:05:10;;;;;;;4.83;3.10;;;;;;;;;;2614520;39;20798;-77
2023/09/21 23:10:40;;;;;;;6.13;2.77;;;;;;;;;;2615624;54;20463;-77
2023/09/21 23:16:11;;;;;;;4.20;2.47;;;;;;;;;;2615084;54;20399;-78
2023/09/21 23:21:41;;;;;;;3.60;2.40;;;;;;;;;;2615363;39;20860;-78
2023/09/21 23:27:12;;;;;;;2.83;2.20;;;;;;;;;;2614804;54;20517;-78
2023/09/21 23:32:41;;;;;;;3.77;2.17;;;;;;;;;;2615046;54;20411;-78
2023/09/21 23:38:12;;;;;;;6.33;2.67;;;;;;;;;;2615205;54;20414;-78
2023/09/21 23:43:41;;;;;;;9.80;3.27;;;;;;;;;;2615097;54;21005;-78
2023/09/21 23:49:11;;;;;;;2.93;1.97;;;;;;;;;;2614979;54;20413;-78
2023/09/21 23:54:41;;;;;;;2.70;1.70;;;;;;;;;;2614698;54;20452;-76
